sensor_id;sensor_type;location;lat;lon;timestamp;pressure;altitude;pressure_sealevel;temperature;humidity
71107;BME280;58763;47.982;11.516;2022-11-18T00:00:44;92565.63;;;6.66;89.62
71107;BME280;58763;47.982;11.516;2022-11-18T00:03:09;92551.41;;;6.66;89.55
71107;BME280;58763;47.982;11.516;2022-11-18T00:05:35;92545.84;;;6.62;89.44
71107;BME280;58763;47.982;11.516;2022-11-18T00:08:00;92552.59;;;6.73;89.34
71107;BME280;58763;47.982;11.516;2022-11-18T00:10:25;92546.81;;;6.66;89.22
71107;BME280;58763;47.982;11.516;2022-11-18T00:12:51;92533.91;;;6.55;89.58
71107;BME280;58763;47.982;11.516;2022-11-18T00:15:35;92543.19;;;6.49;89.95
71107;BME280;58763;47.982;11.516;2022-11-18T00:18:00;92548.25;;;6.50;89.84
71107;BME280;58763;47.982;11.516;2022-11-18T00:20:26;92538.09;;;6.47;89.92
71107;BME280;58763;47.982;11.516;2022-11-18T00:22:51;92530.03;;;6.47;89.82
71107;BME280;58763;47.982;11.516;2022-11-18T00:25:17;92535.22;;;6.44;90.25
71107;BME280;58763;47.982;11.516;2022-11-18T00:27:42;92526.38;;;6.43;90.56
71107;BME280;58763;47.982;11.516;2022-11-18T00:30:11;92534.75;;;6.42;90.32
71107;BME280;58763;47.982;11.516;2022-11-18T00:32:36;92534.03;;;6.36;90.96
71107;BME280;58763;47.982;11.516;2022-11-18T00:35:02;92526.16;;;6.40;90.71
71107;BME280;58763;47.982;11.516;2022-11-18T00:37:27;92522.41;;;6.27;91.16
71107;BME280;58763;47.982;11.516;2022-11-18T00:39:52;92515.75;;;6.24;91.52
71107;BME280;58763;47.982;11.516;2022-11-18T00:42:21;92513.75;;;6.16;92.02
71107;BME280;58763;47.982;11.516;2022-11-18T00:45:05;92506.91;;;6.10;92.52
71107;BME280;58763;47.982;11.516;2022-11-18T00:47:31;92505.41;;;6.18;92.13
71107;BME280;58763;47.982;11.516;2022-11-18T00:49:56;92515.94;;;6.14;92.79
71107;BME280;58763;47.982;11.516;2022-11-18T00:52:22;92500.75;;;6.10;92.59
71107;BME280;58763;47.982;11.516;2022-11-18T00:54:47;92501.84;;;6.09;92.90
71107;BME280;58763;47.982;11.516;2022-11-18T00:57:13;92499.75;;;6.06;92.91
71107;BME280;58763;47.982;11.516;2022-11-18T00:59:38;92483.66;;;6.06;92.89
71107;BME280;58763;47.982;11.516;2022-11-18T01:02:03;92486.72;;;6.13;92.13
71107;BME280;58763;47.982;11.516;2022-11-18T01:04:29;92482.25;;;6.08;92.22
71107;BME280;58763;47.982;11.516;2022-11-18T01:06:54;92478.69;;;6.13;92.30
71107;BME280;58763;47.982;11.516;2022-11-18T01:09:20;92493.41;;;6.15;91.67
71107;BME280;58763;47.982;11.516;2022-11-18T01:11:45;92478.38;;;6.14;91.83
71107;BME280;58763;47.982;11.516;2022-11-18T01:14:29;92482.84;;;6.05;91.69
71107;BME280;58763;47.982;11.516;2022-11-18T01:16:57;92476.00;;;6.13;91.60
71107;BME280;58763;47.982;11.516;2022-11-18T01:19:23;92474.09;;;6.27;91.68
71107;BME280;58763;47.982;11.516;2022-11-18T01:21:49;92472.72;;;6.30;90.78
71107;BME280;58763;47.982;11.516;2022-11-18T01:24:14;92455.38;;;6.36;90.67
71107;BME280;58763;47.982;11.516;2022-11-18T01:26:40;92451.38;;;6.47;90.35
71107;BME280;58763;47.982;11.516;2022-11-18T01:29:06;92448.59;;;6.52;89.87
71107;BME280;58763;47.982;11.516;2022-11-18T01:31:32;92436.50;;;6.41;89.27
71107;BME280;58763;47.982;11.516;2022-11-18T01:33:57;92448.03;;;6.41;89.78
71107;BME280;58763;47.982;11.516;2022-11-18T01:36:24;92442.25;;;6.48;89.58
71107;BME280;58763;47.982;11.516;2022-11-18T01:38:51;92434.28;;;6.43;89.74
71107;BME280;58763;47.982;11.516;2022-11-18T01:41:17;92435.28;;;6.47;88.96
71107;BME280;58763;47.982;11.516;2022-11-18T01:43:54;92443.53;;;6.50;89.21
71107;BME280;58763;47.982;11.516;2022-11-18T01:46:21;92462.31;;;6.50;89.12
71107;BME280;58763;47.982;11.516;2022-11-18T01:48:53;92473.97;;;6.46;89.03
71107;BME280;58763;47.982;11.516;2022-11-18T01:51:29;92481.28;;;6.54;89.02
71107;BME280;58763;47.982;11.516;2022-11-18T01:54:02;92476.66;;;6.46;89.23
71107;BME280;58763;47.982;11.516;2022-11-18T01:56:39;92488.59;;;6.53;88.38
71107;BME280;58763;47.982;11.516;2022-11-18T01:59:16;92485.13;;;6.75;87.88
71107;BME280;58763;47.982;11.516;2022-11-18T02:01:42;92472.91;;;6.69;87.61
71107;BME280;58763;47.982;11.516;2022-11-18T02:04:08;92485.94;;;6.75;87.74
71107;BME280;58763;47.982;11.516;2022-11-18T02:06:35;92481.84;;;6.78;87.68
71107;BME280;58763;47.982;11.516;2022-11-18T02:09:01;92494.19;;;6.65;87.46
71107;BME280;58763;47.982;11.516;2022-11-18T02:11:27;92482.38;;;6.66;87.49
71107;BME280;58763;47.982;11.516;2022-11-18T02:14:11;92479.31;;;6.81;86.89
71107;BME280;58763;47.982;11.516;2022-11-18T02:16:51;92484.09;;;6.84;86.51
71107;BME280;58763;47.982;11.516;2022-11-18T02:22:47;92487.31;;;6.73;87.81
71107;BME280;58763;47.982;11.516;2022-11-18T02:28:32;92477.06;;;6.75;86.70
71107;BME280;58763;47.982;11.516;2022-11-18T02:31:07;92471.19;;;6.73;86.44
71107;BME280;58763;47.982;11.516;2022-11-18T02:33:58;92479.75;;;6.75;86.73
71107;BME280;58763;47.982;11.516;2022-11-18T02:36:49;92467.06;;;6.89;86.27
71107;BME280;58763;47.982;11.516;2022-11-18T02:39:20;92469.66;;;6.94;86.27
71107;BME280;58763;47.982;11.516;2022-11-18T02:41:48;92463.56;;;7.02;85.70
71107;BME280;58763;47.982;11.516;2022-11-18T02:44:16;92460.06;;;7.02;85.60
71107;BME280;58763;47.982;11.516;2022-11-18T02:46:46;92465.84;;;7.17;85.37
71107;BME280;58763;47.982;11.516;2022-11-18T02:49:22;92466.66;;;7.18;85.29
71107;BME280;58763;47.982;11.516;2022-11-18T02:51:50;92466.19;;;7.16;84.87
71107;BME280;58763;47.982;11.516;2022-11-18T02:54:18;92466.66;;;7.18;84.87
71107;BME280;58763;47.982;11.516;2022-11-18T02:56:45;92469.94;;;7.15;84.81
71107;BME280;58763;47.982;11.516;2022-11-18T02:59:16;92468.91;;;7.24;85.00
71107;BME280;58763;47.982;11.516;2022-11-18T03:01:42;92475.78;;;7.30;84.75
71107;BME280;58763;47.982;11.516;2022-11-18T03:04:07;92467.38;;;7.32;84.44
71107;BME280;58763;47.982;11.516;2022-11-18T03:06:38;92477.34;;;7.31;84.64
71107;BME280;58763;47.982;11.516;2022-11-18T03:11:58;92463.06;;;7.22;84.96
71107;BME280;58763;47.982;11.516;2022-11-18T03:16:59;92467.19;;;7.28;84.57
71107;BME280;58763;47.982;11.516;2022-11-18T03:25:01;92476.59;;;7.17;85.51
71107;BME280;58763;47.982;11.516;2022-11-18T03:30:10;92480.28;;;6.99;86.41
71107;BME280;58763;47.982;11.516;2022-11-18T03:32:41;92486.63;;;7.03;86.67
71107;BME280;58763;47.982;11.516;2022-11-18T03:35:11;92497.25;;;7.08;86.51
71107;BME280;58763;47.982;11.516;2022-11-18T03:37:40;92498.88;;;6.95;86.95
71107;BME280;58763;47.982;11.516;2022-11-18T03:40:28;92510.25;;;6.92;87.02
71107;BME280;58763;47.982;11.516;2022-11-18T03:43:09;92514.13;;;7.00;87.56
71107;BME280;58763;47.982;11.516;2022-11-18T03:45:47;92522.47;;;6.98;87.10
71107;BME280;58763;47.982;11.516;2022-11-18T03:48:17;92525.91;;;6.90;87.46
71107;BME280;58763;47.982;11.516;2022-11-18T03:50:47;92519.88;;;6.93;87.36
71107;BME280;58763;47.982;11.516;2022-11-18T03:53:16;92532.28;;;6.81;87.90
71107;BME280;58763;47.982;11.516;2022-11-18T03:55:46;92544.22;;;6.75;88.79
71107;BME280;58763;47.982;11.516;2022-11-18T03:58:26;92545.59;;;6.72;88.69
71107;BME280;58763;47.982;11.516;2022-11-18T04:00:58;92549.44;;;6.58;89.36
71107;BME280;58763;47.982;11.516;2022-11-18T04:03:27;92549.50;;;6.66;89.48
71107;BME280;58763;47.982;11.516;2022-11-18T04:06:02;92547.69;;;6.75;89.35
71107;BME280;58763;47.982;11.516;2022-11-18T04:08:34;92551.72;;;6.64;89.09
71107;BME280;58763;47.982;11.516;2022-11-18T04:11:06;92555.69;;;6.67;89.28
71107;BME280;58763;47.982;11.516;2022-11-18T04:13:35;92562.03;;;6.71;88.98
71107;BME280;58763;47.982;11.516;2022-11-18T04:16:01;92565.44;;;6.76;88.56
71107;BME280;58763;47.982;11.516;2022-11-18T04:18:27;92560.06;;;6.76;89.18
71107;BME280;58763;47.982;11.516;2022-11-18T04:20:52;92550.78;;;6.82;88.63
71107;BME280;58763;47.982;11.516;2022-11-18T04:23:18;92552.66;;;6.82;88.87
71107;BME280;58763;47.982;11.516;2022-11-18T04:25:44;92558.13;;;6.90;88.37
71107;BME280;58763;47.982;11.516;2022-11-18T04:28:10;92556.75;;;6.93;88.40
71107;BME280;58763;47.982;11.516;2022-11-18T04:30:35;92561.72;;;6.86;88.34
71107;BME280;58763;47.982;11.516;2022-11-18T04:33:01;92567.69;;;6.83;88.38
71107;BME280;58763;47.982;11.516;2022-11-18T04:35:26;92550.69;;;6.74;89.02
71107;BME280;58763;47.982;11.516;2022-11-18T04:37:52;92553.59;;;6.64;89.55
71107;BME280;58763;47.982;11.516;2022-11-18T04:40:18;92562.13;;;6.66;89.37
71107;BME280;58763;47.982;11.516;2022-11-18T04:42:43;92564.16;;;6.60;90.22
71107;BME280;58763;47.982;11.516;2022-11-18T04:45:09;92558.97;;;6.64;90.27
71107;BME280;58763;47.982;11.516;2022-11-18T04:47:35;92551.25;;;6.49;90.34
71107;BME280;58763;47.982;11.516;2022-11-18T04:50:01;92556.09;;;6.47;90.83
71107;BME280;58763;47.982;11.516;2022-11-18T04:52:26;92550.22;;;6.45;91.39
71107;BME280;58763;47.982;11.516;2022-11-18T04:54:52;92552.81;;;6.36;91.27
71107;BME280;58763;47.982;11.516;2022-11-18T04:57:17;92544.06;;;6.31;91.72
71107;BME280;58763;47.982;11.516;2022-11-18T04:59:43;92540.41;;;6.26;91.88
71107;BME280;58763;47.982;11.516;2022-11-18T05:02:08;92538.41;;;6.18;92.05
71107;BME280;58763;47.982;11.516;2022-11-18T05:04:34;92544.56;;;6.19;92.21
71107;BME280;58763;47.982;11.516;2022-11-18T05:07:01;92536.91;;;6.12;91.94
71107;BME280;58763;47.982;11.516;2022-11-18T05:09:27;92541.47;;;6.12;91.99
71107;BME280;58763;47.982;11.516;2022-11-18T05:11:53;92555.22;;;6.10;91.41
71107;BME280;58763;47.982;11.516;2022-11-18T05:14:40;92544.97;;;6.12;91.30
71107;BME280;58763;47.982;11.516;2022-11-18T05:17:07;92536.31;;;6.15;91.48
71107;BME280;58763;47.982;11.516;2022-11-18T05:19:33;92552.63;;;6.05;91.47
71107;BME280;58763;47.982;11.516;2022-11-18T05:21:58;92541.56;;;6.07;91.31
71107;BME280;58763;47.982;11.516;2022-11-18T05:24:24;92544.25;;;6.07;90.74
71107;BME280;58763;47.982;11.516;2022-11-18T05:26:51;92540.09;;;6.01;90.68
71107;BME280;58763;47.982;11.516;2022-11-18T05:29:20;92540.81;;;6.06;90.07
71107;BME280;58763;47.982;11.516;2022-11-18T05:31:46;92545.69;;;6.04;90.21
71107;BME280;58763;47.982;11.516;2022-11-18T05:34:13;92543.19;;;6.08;89.29
71107;BME280;58763;47.982;11.516;2022-11-18T05:36:40;92536.81;;;6.04;89.09
71107;BME280;58763;47.982;11.516;2022-11-18T05:39:05;92538.13;;;6.06;88.88
71107;BME280;58763;47.982;11.516;2022-11-18T05:41:31;92541.69;;;6.02;88.33
71107;BME280;58763;47.982;11.516;2022-11-18T05:44:15;92537.72;;;5.99;88.21
71107;BME280;58763;47.982;11.516;2022-11-18T05:46:41;92539.38;;;5.95;88.43
71107;BME280;58763;47.982;11.516;2022-11-18T05:49:07;92531.16;;;5.92;88.55
71107;BME280;58763;47.982;11.516;2022-11-18T05:51:33;92538.78;;;5.85;88.77
71107;BME280;58763;47.982;11.516;2022-11-18T05:54:02;92551.81;;;5.91;88.56
71107;BME280;58763;47.982;11.516;2022-11-18T05:56:32;92550.56;;;5.84;88.13
71107;BME280;58763;47.982;11.516;2022-11-18T05:58:59;92549.44;;;5.90;88.05
71107;BME280;58763;47.982;11.516;2022-11-18T06:01:51;92556.78;;;5.98;87.81
71107;BME280;58763;47.982;11.516;2022-11-18T06:06:48;92559.53;;;5.93;87.32
71107;BME280;58763;47.982;11.516;2022-11-18T06:09:17;92558.28;;;5.90;87.14
71107;BME280;58763;47.982;11.516;2022-11-18T06:11:50;92562.53;;;5.91;86.94
71107;BME280;58763;47.982;11.516;2022-11-18T06:14:21;92566.03;;;5.92;87.23
71107;BME280;58763;47.982;11.516;2022-11-18T06:16:52;92570.59;;;5.91;87.13
71107;BME280;58763;47.982;11.516;2022-11-18T06:19:20;92578.13;;;5.89;87.24
71107;BME280;58763;47.982;11.516;2022-11-18T06:21:46;92574.47;;;5.99;86.87
71107;BME280;58763;47.982;11.516;2022-11-18T06:24:12;92576.03;;;6.00;86.59
71107;BME280;58763;47.982;11.516;2022-11-18T06:26:39;92584.41;;;5.98;86.71
71107;BME280;58763;47.982;11.516;2022-11-18T06:29:06;92589.84;;;5.93;87.03
71107;BME280;58763;47.982;11.516;2022-11-18T06:31:32;92587.34;;;5.83;87.24
71107;BME280;58763;47.982;11.516;2022-11-18T06:33:58;92590.47;;;5.90;86.71
71107;BME280;58763;47.982;11.516;2022-11-18T06:36:23;92589.94;;;5.88;86.76
71107;BME280;58763;47.982;11.516;2022-11-18T06:38:49;92597.22;;;5.88;86.87
71107;BME280;58763;47.982;11.516;2022-11-18T06:41:14;92603.88;;;5.90;86.66
71107;BME280;58763;47.982;11.516;2022-11-18T06:43:40;92600.09;;;5.91;86.92
71107;BME280;58763;47.982;11.516;2022-11-18T06:46:11;92621.13;;;5.84;87.31
71107;BME280;58763;47.982;11.516;2022-11-18T06:48:56;92607.44;;;5.86;87.75
71107;BME280;58763;47.982;11.516;2022-11-18T06:51:22;92603.66;;;5.87;87.67
71107;BME280;58763;47.982;11.516;2022-11-18T06:53:48;92623.72;;;5.89;87.87
71107;BME280;58763;47.982;11.516;2022-11-18T06:56:14;92615.09;;;5.92;87.43
71107;BME280;58763;47.982;11.516;2022-11-18T06:58:41;92625.22;;;5.95;87.84
71107;BME280;58763;47.982;11.516;2022-11-18T07:03:36;92633.69;;;6.02;87.90
71107;BME280;58763;47.982;11.516;2022-11-18T07:06:01;92637.97;;;6.03;87.80
71107;BME280;58763;47.982;11.516;2022-11-18T07:08:27;92639.78;;;6.08;88.09
71107;BME280;58763;47.982;11.516;2022-11-18T07:10:52;92641.88;;;6.11;87.40
71107;BME280;58763;47.982;11.516;2022-11-18T07:13:18;92634.31;;;6.13;87.48
71107;BME280;58763;47.982;11.516;2022-11-18T07:15:44;92653.38;;;6.11;87.84
71107;BME280;58763;47.982;11.516;2022-11-18T07:18:09;92646.53;;;6.05;87.94
71107;BME280;58763;47.982;11.516;2022-11-18T07:20:35;92647.03;;;6.07;88.74
71107;BME280;58763;47.982;11.516;2022-11-18T07:23:00;92658.56;;;6.08;88.57
71107;BME280;58763;47.982;11.516;2022-11-18T07:25:26;92655.69;;;6.04;88.83
71107;BME280;58763;47.982;11.516;2022-11-18T07:27:51;92660.16;;;6.09;88.19
71107;BME280;58763;47.982;11.516;2022-11-18T07:30:17;92656.38;;;6.10;87.76
71107;BME280;58763;47.982;11.516;2022-11-18T07:32:43;92661.97;;;6.13;88.17
71107;BME280;58763;47.982;11.516;2022-11-18T07:35:09;92663.03;;;6.12;87.99
71107;BME280;58763;47.982;11.516;2022-11-18T07:37:34;92664.66;;;6.13;88.64
71107;BME280;58763;47.982;11.516;2022-11-18T07:40:00;92674.00;;;6.16;88.37
71107;BME280;58763;47.982;11.516;2022-11-18T07:42:25;92672.00;;;6.21;88.90
71107;BME280;58763;47.982;11.516;2022-11-18T07:44:51;92671.50;;;6.19;88.04
71107;BME280;58763;47.982;11.516;2022-11-18T07:47:17;92667.94;;;6.24;88.25
71107;BME280;58763;47.982;11.516;2022-11-18T07:49:42;92680.28;;;6.25;88.38
71107;BME280;58763;47.982;11.516;2022-11-18T07:52:08;92676.28;;;6.22;88.47
71107;BME280;58763;47.982;11.516;2022-11-18T07:54:34;92675.09;;;6.28;88.17
71107;BME280;58763;47.982;11.516;2022-11-18T07:56:59;92680.78;;;6.27;88.49
71107;BME280;58763;47.982;11.516;2022-11-18T07:59:25;92684.34;;;6.22;87.77
71107;BME280;58763;47.982;11.516;2022-11-18T08:01:51;92687.84;;;6.23;87.88
71107;BME280;58763;47.982;11.516;2022-11-18T08:04:16;92691.00;;;6.25;88.09
71107;BME280;58763;47.982;11.516;2022-11-18T08:06:42;92680.78;;;6.27;87.28
71107;BME280;58763;47.982;11.516;2022-11-18T08:09:08;92692.59;;;6.26;87.79
71107;BME280;58763;47.982;11.516;2022-11-18T08:11:34;92683.72;;;6.25;87.41
71107;BME280;58763;47.982;11.516;2022-11-18T08:14:00;92686.72;;;6.24;87.40
71107;BME280;58763;47.982;11.516;2022-11-18T08:16:26;92682.66;;;6.26;87.22
71107;BME280;58763;47.982;11.516;2022-11-18T08:18:54;92690.03;;;6.35;87.55
71107;BME280;58763;47.982;11.516;2022-11-18T08:21:21;92689.25;;;6.34;87.38
71107;BME280;58763;47.982;11.516;2022-11-18T08:23:56;92690.13;;;6.30;87.61
71107;BME280;58763;47.982;11.516;2022-11-18T08:26:23;92689.91;;;6.26;88.06
71107;BME280;58763;47.982;11.516;2022-11-18T08:28:49;92693.19;;;6.23;88.07
71107;BME280;58763;47.982;11.516;2022-11-18T08:31:21;92697.25;;;6.20;87.58
71107;BME280;58763;47.982;11.516;2022-11-18T08:33:47;92701.84;;;6.20;87.72
71107;BME280;58763;47.982;11.516;2022-11-18T08:36:17;92710.38;;;6.22;87.44
71107;BME280;58763;47.982;11.516;2022-11-18T08:38:43;92709.88;;;6.20;87.25
71107;BME280;58763;47.982;11.516;2022-11-18T08:41:21;92716.63;;;6.17;88.73
71107;BME280;58763;47.982;11.516;2022-11-18T08:43:48;92717.72;;;6.16;89.34
71107;BME280;58763;47.982;11.516;2022-11-18T08:46:13;92719.91;;;6.14;89.38
71107;BME280;58763;47.982;11.516;2022-11-18T08:48:39;92714.66;;;6.23;89.18
71107;BME280;58763;47.982;11.516;2022-11-18T08:51:04;92716.31;;;6.19;88.92
71107;BME280;58763;47.982;11.516;2022-11-18T08:53:30;92710.69;;;6.20;88.49
71107;BME280;58763;47.982;11.516;2022-11-18T08:55:58;92712.47;;;6.25;88.96
71107;BME280;58763;47.982;11.516;2022-11-18T08:58:25;92719.34;;;6.31;88.34
71107;BME280;58763;47.982;11.516;2022-11-18T09:00:51;92722.44;;;6.38;87.53
71107;BME280;58763;47.982;11.516;2022-11-18T09:03:16;92717.88;;;6.39;86.04
71107;BME280;58763;47.982;11.516;2022-11-18T09:05:42;92721.88;;;6.41;86.84
71107;BME280;58763;47.982;11.516;2022-11-18T09:08:08;92734.59;;;6.49;85.69
71107;BME280;58763;47.982;11.516;2022-11-18T09:10:33;92726.25;;;6.51;85.39
71107;BME280;58763;47.982;11.516;2022-11-18T09:12:59;92733.03;;;6.48;85.26
71107;BME280;58763;47.982;11.516;2022-11-18T09:15:25;92736.19;;;6.50;84.66
71107;BME280;58763;47.982;11.516;2022-11-18T09:17:52;92738.00;;;6.55;84.66
71107;BME280;58763;47.982;11.516;2022-11-18T09:20:17;92743.16;;;6.51;85.31
71107;BME280;58763;47.982;11.516;2022-11-18T09:22:43;92739.69;;;6.51;84.84
71107;BME280;58763;47.982;11.516;2022-11-18T09:25:09;92743.69;;;6.53;85.03
71107;BME280;58763;47.982;11.516;2022-11-18T09:27:35;92752.72;;;6.57;84.87
71107;BME280;58763;47.982;11.516;2022-11-18T09:30:00;92751.94;;;6.57;84.16
71107;BME280;58763;47.982;11.516;2022-11-18T09:32:25;92744.38;;;6.59;83.30
71107;BME280;58763;47.982;11.516;2022-11-18T09:34:51;92747.53;;;6.61;83.71
71107;BME280;58763;47.982;11.516;2022-11-18T09:37:17;92749.34;;;6.65;84.67
71107;BME280;58763;47.982;11.516;2022-11-18T09:39:43;92756.22;;;6.71;84.02
71107;BME280;58763;47.982;11.516;2022-11-18T09:47:30;92750.78;;;6.90;83.79
71107;BME280;58763;47.982;11.516;2022-11-18T09:49:59;92768.47;;;6.91;83.52
71107;BME280;58763;47.982;11.516;2022-11-18T09:52:32;92755.66;;;6.88;83.86
71107;BME280;58763;47.982;11.516;2022-11-18T09:55:00;92773.38;;;6.89;83.66
71107;BME280;58763;47.982;11.516;2022-11-18T09:57:35;92772.06;;;6.86;83.91
71107;BME280;58763;47.982;11.516;2022-11-18T10:00:09;92768.59;;;6.86;83.09
71107;BME280;58763;47.982;11.516;2022-11-18T10:02:49;92773.16;;;6.85;83.60
71107;BME280;58763;47.982;11.516;2022-11-18T10:05:21;92777.16;;;6.88;82.93
71107;BME280;58763;47.982;11.516;2022-11-18T10:10:23;92777.66;;;6.90;83.19
71107;BME280;58763;47.982;11.516;2022-11-18T10:12:56;92775.38;;;6.97;83.18
71107;BME280;58763;47.982;11.516;2022-11-18T10:15:40;92775.88;;;6.99;81.32
71107;BME280;58763;47.982;11.516;2022-11-18T10:18:17;92774.88;;;6.95;81.25
71107;BME280;58763;47.982;11.516;2022-11-18T10:20:52;92773.50;;;6.97;81.41
71107;BME280;58763;47.982;11.516;2022-11-18T10:23:28;92772.28;;;7.04;82.84
71107;BME280;58763;47.982;11.516;2022-11-18T10:25:56;92779.56;;;7.03;82.10
71107;BME280;58763;47.982;11.516;2022-11-18T10:28:26;92780.84;;;7.06;81.03
71107;BME280;58763;47.982;11.516;2022-11-18T10:31:02;92777.84;;;6.93;80.60
71107;BME280;58763;47.982;11.516;2022-11-18T10:33:29;92784.53;;;6.96;81.67
71107;BME280;58763;47.982;11.516;2022-11-18T10:36:18;92774.06;;;6.94;82.31
71107;BME280;58763;47.982;11.516;2022-11-18T10:38:44;92791.00;;;6.95;82.46
71107;BME280;58763;47.982;11.516;2022-11-18T10:41:16;92780.53;;;6.80;83.53
71107;BME280;58763;47.982;11.516;2022-11-18T10:43:51;92781.81;;;6.82;82.88
71107;BME280;58763;47.982;11.516;2022-11-18T10:46:25;92782.03;;;6.86;83.08
71107;BME280;58763;47.982;11.516;2022-11-18T10:51:37;92779.44;;;6.81;83.14
71107;BME280;58763;47.982;11.516;2022-11-18T10:54:27;92789.34;;;6.67;84.03
71107;BME280;58763;47.982;11.516;2022-11-18T10:56:58;92782.88;;;6.68;83.91
71107;BME280;58763;47.982;11.516;2022-11-18T11:02:33;92779.88;;;6.56;84.91
71107;BME280;58763;47.982;11.516;2022-11-18T11:05:15;92781.06;;;6.63;85.15
71107;BME280;58763;47.982;11.516;2022-11-18T11:07:41;92781.22;;;6.72;84.42
71107;BME280;58763;47.982;11.516;2022-11-18T11:12:42;92773.41;;;6.57;84.89
71107;BME280;58763;47.982;11.516;2022-11-18T11:15:35;92774.59;;;6.51;85.03
71107;BME280;58763;47.982;11.516;2022-11-18T11:18:05;92774.50;;;6.56;84.45
71107;BME280;58763;47.982;11.516;2022-11-18T11:20:53;92783.97;;;6.53;85.16
71107;BME280;58763;47.982;11.516;2022-11-18T11:23:19;92783.72;;;6.50;85.29
71107;BME280;58763;47.982;11.516;2022-11-18T11:28:20;92781.84;;;6.50;84.99
71107;BME280;58763;47.982;11.516;2022-11-18T11:31:11;92783.66;;;6.55;85.08
71107;BME280;58763;47.982;11.516;2022-11-18T11:45:03;92775.44;;;6.65;84.38
71107;BME280;58763;47.982;11.516;2022-11-18T11:47:38;92777.31;;;6.64;83.61
71107;BME280;58763;47.982;11.516;2022-11-18T11:55:34;92787.31;;;6.45;83.97
71107;BME280;58763;47.982;11.516;2022-11-18T12:00:47;92790.81;;;6.27;85.30
71107;BME280;58763;47.982;11.516;2022-11-18T12:06:09;92796.88;;;6.33;85.92
71107;BME280;58763;47.982;11.516;2022-11-18T12:08:36;92811.13;;;6.33;86.05
71107;BME280;58763;47.982;11.516;2022-11-18T12:11:23;92812.56;;;6.25;86.21
71107;BME280;58763;47.982;11.516;2022-11-18T12:19:13;92822.72;;;6.28;87.51
71107;BME280;58763;47.982;11.516;2022-11-18T12:24:48;92823.59;;;6.24;88.24
71107;BME280;58763;47.982;11.516;2022-11-18T12:32:25;92832.91;;;6.13;90.88
71107;BME280;58763;47.982;11.516;2022-11-18T12:34:58;92835.78;;;6.16;91.31
71107;BME280;58763;47.982;11.516;2022-11-18T12:42:42;92836.47;;;6.08;91.44
71107;BME280;58763;47.982;11.516;2022-11-18T12:48:32;92844.06;;;6.01;92.03
71107;BME280;58763;47.982;11.516;2022-11-18T12:51:00;92854.22;;;5.86;92.38
71107;BME280;58763;47.982;11.516;2022-11-18T12:53:31;92849.22;;;5.74;92.62
71107;BME280;58763;47.982;11.516;2022-11-18T12:55:59;92852.16;;;5.78;93.35
71107;BME280;58763;47.982;11.516;2022-11-18T12:58:25;92846.78;;;5.78;91.98
71107;BME280;58763;47.982;11.516;2022-11-18T13:01:10;92857.13;;;5.89;91.69
71107;BME280;58763;47.982;11.516;2022-11-18T13:03:36;92865.00;;;5.81;92.22
71107;BME280;58763;47.982;11.516;2022-11-18T13:06:05;92860.19;;;5.78;92.45
71107;BME280;58763;47.982;11.516;2022-11-18T13:08:31;92861.00;;;5.78;92.71
71107;BME280;58763;47.982;11.516;2022-11-18T13:11:17;92856.56;;;5.69;92.97
71107;BME280;58763;47.982;11.516;2022-11-18T13:14:05;92865.50;;;5.83;93.02
71107;BME280;58763;47.982;11.516;2022-11-18T13:16:56;92869.25;;;5.82;92.64
71107;BME280;58763;47.982;11.516;2022-11-18T13:19:40;92874.28;;;5.88;92.99
71107;BME280;58763;47.982;11.516;2022-11-18T13:22:16;92880.91;;;5.96;92.45
71107;BME280;58763;47.982;11.516;2022-11-18T13:25:00;92888.81;;;5.82;93.13
71107;BME280;58763;47.982;11.516;2022-11-18T13:27:48;92890.59;;;5.68;92.84
71107;BME280;58763;47.982;11.516;2022-11-18T13:30:17;92887.63;;;5.70;92.21
71107;BME280;58763;47.982;11.516;2022-11-18T13:32:43;92887.97;;;5.63;91.06
71107;BME280;58763;47.982;11.516;2022-11-18T13:35:16;92889.16;;;5.57;92.01
71107;BME280;58763;47.982;11.516;2022-11-18T13:37:50;92894.16;;;5.64;91.84
71107;BME280;58763;47.982;11.516;2022-11-18T13:42:46;92885.81;;;5.65;91.37
71107;BME280;58763;47.982;11.516;2022-11-18T13:45:12;92888.28;;;5.62;92.07
71107;BME280;58763;47.982;11.516;2022-11-18T13:52:49;92892.28;;;5.40;93.12
71107;BME280;58763;47.982;11.516;2022-11-18T13:55:23;92895.72;;;5.46;93.39
71107;BME280;58763;47.982;11.516;2022-11-18T13:58:05;92899.06;;;5.56;93.19
71107;BME280;58763;47.982;11.516;2022-11-18T14:00:34;92903.63;;;5.56;93.40
71107;BME280;58763;47.982;11.516;2022-11-18T14:03:19;92897.25;;;5.52;93.15
71107;BME280;58763;47.982;11.516;2022-11-18T14:05:55;92902.81;;;5.55;93.05
71107;BME280;58763;47.982;11.516;2022-11-18T14:08:29;92897.13;;;5.62;92.49
71107;BME280;58763;47.982;11.516;2022-11-18T14:10:56;92897.59;;;5.69;92.05
71107;BME280;58763;47.982;11.516;2022-11-18T14:13:28;92904.59;;;5.65;91.54
71107;BME280;58763;47.982;11.516;2022-11-18T14:18:44;92907.34;;;5.60;91.48
71107;BME280;58763;47.982;11.516;2022-11-18T14:21:11;92903.88;;;5.59;92.24
71107;BME280;58763;47.982;11.516;2022-11-18T14:23:41;92910.41;;;5.48;91.93
71107;BME280;58763;47.982;11.516;2022-11-18T14:26:08;92916.06;;;5.47;91.69
71107;BME280;58763;47.982;11.516;2022-11-18T14:28:35;92917.97;;;5.41;90.72
71107;BME280;58763;47.982;11.516;2022-11-18T14:31:18;92926.88;;;5.37;90.56
71107;BME280;58763;47.982;11.516;2022-11-18T14:36:31;92920.03;;;5.26;90.31
71107;BME280;58763;47.982;11.516;2022-11-18T14:38:56;92926.41;;;5.30;90.43
71107;BME280;58763;47.982;11.516;2022-11-18T14:41:21;92923.19;;;5.33;90.35
71107;BME280;58763;47.982;11.516;2022-11-18T14:44:06;92928.59;;;5.28;90.77
71107;BME280;58763;47.982;11.516;2022-11-18T14:46:33;92931.03;;;5.24;91.01
71107;BME280;58763;47.982;11.516;2022-11-18T14:49:04;92922.66;;;5.31;90.80
71107;BME280;58763;47.982;11.516;2022-11-18T14:51:30;92934.06;;;5.41;90.49
71107;BME280;58763;47.982;11.516;2022-11-18T14:53:56;92931.22;;;5.33;90.74